Aegean Viii — SXKO — position and weather

sailwx.info

Track history (hours):
 
Tides and Currents Weather Stations Pressure Air Temp Water Temp Dewpoint Dewpoint Depression Visibility Wind Speed Wind Dir Waves Ship Positions

Aegean Viii

Last reported at 2016-Aug-24 11:16 UTC. Time now 2016-Aug-24 21:27 UTC.
Position N 38°02' E 023°32'.

Length 75 m; draft 3.8 m.

Type: Tanker. MMSI: 240732000.

Date/timePositionNaut miles runAvg speedWind from/ knotsBaromVisibWave heightAir tempDewpointWater temp
2016-Aug-24 11:16N 38°02' E 023°32'0 0.0
2016-Aug-24 10:34N 38°02' E 023°32'3 2.7
2016-Aug-24 09:33N 38°02' E 023°35'0 0.0
2016-Aug-24 08:33N 38°02' E 023°35'0 0.2
2016-Aug-24 07:33N 38°02' E 023°35'0 0.2
2016-Aug-24 06:34N 38°02' E 023°36'0 0.0
2016-Aug-24 04:33N 38°02' E 023°36'0 0.0
2016-Aug-24 03:33N 38°02' E 023°36'0 0.0
2016-Aug-24 02:33N 38°02' E 023°36'3 3.0
2016-Aug-24 01:34N 38°02' E 023°32'0 0.2
2016-Aug-24 00:33N 38°02' E 023°32'0 0.0
2016-Aug-23 23:33N 38°02' E 023°32'0 0.0
2016-Aug-23 22:33N 38°02' E 023°32'0 0.0
2016-Aug-23 21:33N 38°02' E 023°32'0 0.0
2016-Aug-23 20:33N 38°02' E 023°32'0 0.0
2016-Aug-23 19:33N 38°02' E 023°32'0 0.0
2016-Aug-23 18:33N 38°02' E 023°32'0 0.0
2016-Aug-23 17:33N 38°02' E 023°32'0 0.0
2016-Aug-23 16:33N 38°02' E 023°32'0 0.1
2016-Aug-23 15:33N 38°02' E 023°32'6 6.0
2016-Aug-23 14:34N 37°57' E 023°36'0 0.4
2016-Aug-23 13:33N 37°58' E 023°36'0 0.0
2016-Aug-23 12:34N 37°58' E 023°36'0 0.0
2016-Aug-23 11:33N 37°58' E 023°36'3 3.4
2016-Aug-23 10:34N 37°60' E 023°33'3 2.7
2016-Aug-23 09:33N 38°02' E 023°32'0 0.0
2016-Aug-22 22:10N 38°02' E 023°32'0 0.0
2016-Aug-22 21:33N 38°02' E 023°32'3 2.9
2016-Aug-22 20:33N 38°02' E 023°36'0 0.1
2016-Aug-22 19:34N 38°02' E 023°36'0 0.0
2016-Aug-22 18:33N 38°02' E 023°36'0 0.0
2016-Aug-22 17:33N 38°02' E 023°36'1 0.7
2016-Aug-22 16:34N 38°01' E 023°35'0 0.0
2016-Aug-22 15:33N 38°01' E 023°35'0 0.0
2016-Aug-22 14:34N 38°01' E 023°35'0 0.0
2016-Aug-22 13:34N 38°01' E 023°35'0 0.0
2016-Aug-22 12:33N 38°01' E 023°35'0 0.1
2016-Aug-22 11:33N 38°01' E 023°35'3 2.6
2016-Aug-22 10:34N 38°02' E 023°32'0 0.1
2016-Aug-22 09:33N 38°02' E 023°32'0 0.0
2016-Aug-22 08:33N 38°02' E 023°32'0 0.0
2016-Aug-22 07:34N 38°02' E 023°32'0 0.0
2016-Aug-22 06:34N 38°02' E 023°32'0 0.0
2016-Aug-22 05:33N 38°02' E 023°32'0 0.0
2016-Aug-21 06:34N 38°02' E 023°32'0 0.0
2016-Aug-21 05:33N 38°02' E 023°32'0 0.3
2016-Aug-21 04:33N 38°02' E 023°32'0 0.2
2016-Aug-21 03:33N 38°02' E 023°32'0 0.0
2016-Aug-21 02:33N 38°02' E 023°32'0 0.0
2016-Aug-20 06:34N 38°02' E 023°32'0 0.3
2016-Aug-20 05:33N 38°02' E 023°32'0 0.0
2016-Aug-20 04:33N 38°02' E 023°32'0 0.3
2016-Aug-20 03:34N 38°02' E 023°32'0 0.0
2016-Aug-20 02:34N 38°02' E 023°32'0 0.0
2016-Aug-19 14:33N 38°02' E 023°32'1 0.5
2016-Aug-19 13:34N 38°02' E 023°32'0 0.2
2016-Aug-19 12:33N 38°02' E 023°32'0 0.4
2016-Aug-19 11:33N 38°02' E 023°32'0 0.1
2016-Aug-19 10:34N 38°02' E 023°32'3 2.8
2016-Aug-19 09:34N 38°02' E 023°36'0 0.1
2016-Aug-19 08:34N 38°02' E 023°36'0 0.0
2016-Aug-19 07:34N 38°02' E 023°36'0 0.0
2016-Aug-19 06:34N 38°02' E 023°36'0 0.0
2016-Aug-19 05:34N 38°02' E 023°36'1 1.4
2016-Aug-19 04:34N 38°02' E 023°34'2 1.5
2016-Aug-19 03:34N 38°02' E 023°32'0 0.0
2016-Aug-18 11:07N 38°02' E 023°32'0 0.0
2016-Aug-18 10:34N 38°02' E 023°32'0 0.0
2016-Aug-18 09:33N 38°02' E 023°32'0 0.0
2016-Aug-18 08:34N 38°02' E 023°32'0 0.0
2016-Aug-18 07:34N 38°02' E 023°32'0 0.0
2016-Aug-18 06:34N 38°02' E 023°32'0 0.0
2016-Aug-18 05:34N 38°02' E 023°32'0 0.0
2016-Aug-18 04:33N 38°02' E 023°32'0 0.0
2016-Aug-17 13:33N 38°02' E 023°32'0 0.0
2016-Aug-17 12:34N 38°02' E 023°32'0 0.0
2016-Aug-17 11:33N 38°02' E 023°32'0 0.0
2016-Aug-17 10:33N 38°02' E 023°32'0 0.0
2016-Aug-17 09:33N 38°02' E 023°32'0 0.0
2016-Aug-17 08:33N 38°02' E 023°32'0 0.0
2016-Aug-17 07:33N 38°02' E 023°32'0 0.0
2016-Aug-17 06:34N 38°02' E 023°32'0 0.0
2016-Aug-17 05:33N 38°02' E 023°32'0 0.0
2016-Aug-17 04:33N 38°02' E 023°32'0 0.0
2016-Aug-17 03:33N 38°02' E 023°32'0 0.0
2016-Aug-17 02:34N 38°02' E 023°32'0 0.0
2016-Aug-17 01:33N 38°02' E 023°32'0 0.0
2016-Aug-17 00:33N 38°02' E 023°32'0 0.0
2016-Aug-16 23:33N 38°02' E 023°32'0 0.0
2016-Aug-16 22:33N 38°02' E 023°32'0 0.0
2016-Aug-16 21:33N 38°02' E 023°32'0 0.0
2016-Aug-16 20:33N 38°02' E 023°32'0 0.0
2016-Aug-16 19:33N 38°02' E 023°32'5 4.9
2016-Aug-16 18:34N 37°57' E 023°33'7 6.6
2016-Aug-16 17:33N 37°51' E 023°31'0 0.0
2016-Aug-16 16:33N 37°51' E 023°31'0 0.1
2016-Aug-16 15:34N 37°51' E 023°31'2 2.2
2016-Aug-16 14:33N 37°53' E 023°32'8 7.9
2016-Aug-16 13:33N 38°01' E 023°34'2 1.6
2016-Aug-16 12:33N 38°02' E 023°36'0 0.0
2016-Aug-16 11:33N 38°02' E 023°36'1 0.6
2016-Aug-16 10:33N 38°02' E 023°35'2 0.8
2016-Aug-16 07:24N 38°02' E 023°32'0 0.0
2016-Aug-15 17:13N 38°02' E 023°32'0 0.0
2016-Aug-15 16:33N 38°02' E 023°32'5 5.4
2016-Aug-15 15:34N 37°57' E 023°35'0 0.1
2016-Aug-15 14:33N 37°57' E 023°35'0 0.0
2016-Aug-15 13:33N 37°57' E 023°35'4 3.6
2016-Aug-15 12:33N 38°00' E 023°33'2 2.0
2016-Aug-15 11:33N 38°02' E 023°32'0 0.0
2016-Aug-15 10:33N 38°02' E 023°32'0 0.0
2016-Aug-15 04:33N 38°02' E 023°32'0 0.0
2016-Aug-15 03:34N 38°02' E 023°32'0 0.0
2016-Aug-15 02:33N 38°02' E 023°32'0 0.0
2016-Aug-15 01:33N 38°02' E 023°32'5 5.2
2016-Aug-15 00:34N 37°60' E 023°26'8 7.5
2016-Aug-14 23:33N 37°52' E 023°25'6 6.4
2016-Aug-14 22:33N 37°52' E 023°33'0 0.0
2016-Aug-14 21:33N 37°52' E 023°33'0 0.0
2016-Aug-14 20:33N 37°52' E 023°33'0 0.0
2016-Aug-14 19:33N 37°52' E 023°33'0 0.0
2016-Aug-14 18:33N 37°52' E 023°33'0 0.0
2016-Aug-14 17:33N 37°52' E 023°33'0 0.1
2016-Aug-14 16:34N 37°52' E 023°33'2 2.5
2016-Aug-14 15:34N 37°54' E 023°34'8 7.6
2016-Aug-14 14:33N 38°01' E 023°32'1 0.8
2016-Aug-14 13:33N 38°02' E 023°32'  
Track history (hours):
 
Tides and Currents Weather Stations Pressure Air Temp Water Temp Dewpoint Dewpoint Depression Visibility Wind Speed Wind Dir Waves Ship Positions

Aegean Viii

Last reported at 2016-Aug-24 11:16 UTC. Time now 2016-Aug-24 21:27 UTC.
Position N 38°02' E 023°32'.

Length 75 m; draft 3.8 m.

Type: Tanker. MMSI: 240732000.

Date/timePositionNaut miles runAvg speedWind from/ knotsBaromVisibWave heightAir tempDewpointWater temp
2016-Aug-24 11:16N 38°02' E 023°32'0 0.0
2016-Aug-24 10:34N 38°02' E 023°32'3 2.7
2016-Aug-24 09:33N 38°02' E 023°35'0 0.0
2016-Aug-24 08:33N 38°02' E 023°35'0 0.2
2016-Aug-24 07:33N 38°02' E 023°35'0 0.2
2016-Aug-24 06:34N 38°02' E 023°36'0 0.0
2016-Aug-24 04:33N 38°02' E 023°36'0 0.0
2016-Aug-24 03:33N 38°02' E 023°36'0 0.0
2016-Aug-24 02:33N 38°02' E 023°36'3 3.0
2016-Aug-24 01:34N 38°02' E 023°32'0 0.2
2016-Aug-24 00:33N 38°02' E 023°32'0 0.0
2016-Aug-23 23:33N 38°02' E 023°32'0 0.0
2016-Aug-23 22:33N 38°02' E 023°32'0 0.0
2016-Aug-23 21:33N 38°02' E 023°32'0 0.0
2016-Aug-23 20:33N 38°02' E 023°32'0 0.0
2016-Aug-23 19:33N 38°02' E 023°32'0 0.0
2016-Aug-23 18:33N 38°02' E 023°32'0 0.0
2016-Aug-23 17:33N 38°02' E 023°32'0 0.0
2016-Aug-23 16:33N 38°02' E 023°32'0 0.1
2016-Aug-23 15:33N 38°02' E 023°32'6 6.0
2016-Aug-23 14:34N 37°57' E 023°36'0 0.4
2016-Aug-23 13:33N 37°58' E 023°36'0 0.0
2016-Aug-23 12:34N 37°58' E 023°36'0 0.0
2016-Aug-23 11:33N 37°58' E 023°36'3 3.4
2016-Aug-23 10:34N 37°60' E 023°33'3 2.7
2016-Aug-23 09:33N 38°02' E 023°32'0 0.0
2016-Aug-22 22:10N 38°02' E 023°32'0 0.0
2016-Aug-22 21:33N 38°02' E 023°32'3 2.9
2016-Aug-22 20:33N 38°02' E 023°36'0 0.1
2016-Aug-22 19:34N 38°02' E 023°36'0 0.0
2016-Aug-22 18:33N 38°02' E 023°36'0 0.0
2016-Aug-22 17:33N 38°02' E 023°36'1 0.7
2016-Aug-22 16:34N 38°01' E 023°35'0 0.0
2016-Aug-22 15:33N 38°01' E 023°35'0 0.0
2016-Aug-22 14:34N 38°01' E 023°35'0 0.0
2016-Aug-22 13:34N 38°01' E 023°35'0 0.0
2016-Aug-22 12:33N 38°01' E 023°35'0 0.1
2016-Aug-22 11:33N 38°01' E 023°35'3 2.6
2016-Aug-22 10:34N 38°02' E 023°32'0 0.1
2016-Aug-22 09:33N 38°02' E 023°32'0 0.0
2016-Aug-22 08:33N 38°02' E 023°32'0 0.0
2016-Aug-22 07:34N 38°02' E 023°32'0 0.0
2016-Aug-22 06:34N 38°02' E 023°32'0 0.0
2016-Aug-22 05:33N 38°02' E 023°32'0 0.0
2016-Aug-21 06:34N 38°02' E 023°32'0 0.0
2016-Aug-21 05:33N 38°02' E 023°32'0 0.3
2016-Aug-21 04:33N 38°02' E 023°32'0 0.2
2016-Aug-21 03:33N 38°02' E 023°32'0 0.0
2016-Aug-21 02:33N 38°02' E 023°32'0 0.0
2016-Aug-20 06:34N 38°02' E 023°32'0 0.3
2016-Aug-20 05:33N 38°02' E 023°32'0 0.0
2016-Aug-20 04:33N 38°02' E 023°32'0 0.3
2016-Aug-20 03:34N 38°02' E 023°32'0 0.0
2016-Aug-20 02:34N 38°02' E 023°32'0 0.0
2016-Aug-19 14:33N 38°02' E 023°32'1 0.5
2016-Aug-19 13:34N 38°02' E 023°32'0 0.2
2016-Aug-19 12:33N 38°02' E 023°32'0 0.4
2016-Aug-19 11:33N 38°02' E 023°32'0 0.1
2016-Aug-19 10:34N 38°02' E 023°32'3 2.8
2016-Aug-19 09:34N 38°02' E 023°36'0 0.1
2016-Aug-19 08:34N 38°02' E 023°36'0 0.0
2016-Aug-19 07:34N 38°02' E 023°36'0 0.0
2016-Aug-19 06:34N 38°02' E 023°36'0 0.0
2016-Aug-19 05:34N 38°02' E 023°36'1 1.4
2016-Aug-19 04:34N 38°02' E 023°34'2 1.5
2016-Aug-19 03:34N 38°02' E 023°32'0 0.0
2016-Aug-18 11:07N 38°02' E 023°32'0 0.0
2016-Aug-18 10:34N 38°02' E 023°32'0 0.0
2016-Aug-18 09:33N 38°02' E 023°32'0 0.0
2016-Aug-18 08:34N 38°02' E 023°32'0 0.0
2016-Aug-18 07:34N 38°02' E 023°32'0 0.0
2016-Aug-18 06:34N 38°02' E 023°32'0 0.0
2016-Aug-18 05:34N 38°02' E 023°32'0 0.0
2016-Aug-18 04:33N 38°02' E 023°32'0 0.0
2016-Aug-17 13:33N 38°02' E 023°32'0 0.0
2016-Aug-17 12:34N 38°02' E 023°32'0 0.0
2016-Aug-17 11:33N 38°02' E 023°32'0 0.0
2016-Aug-17 10:33N 38°02' E 023°32'0 0.0
2016-Aug-17 09:33N 38°02' E 023°32'0 0.0
2016-Aug-17 08:33N 38°02' E 023°32'0 0.0
2016-Aug-17 07:33N 38°02' E 023°32'0 0.0
2016-Aug-17 06:34N 38°02' E 023°32'0 0.0
2016-Aug-17 05:33N 38°02' E 023°32'0 0.0
2016-Aug-17 04:33N 38°02' E 023°32'0 0.0
2016-Aug-17 03:33N 38°02' E 023°32'0 0.0
2016-Aug-17 02:34N 38°02' E 023°32'0 0.0
2016-Aug-17 01:33N 38°02' E 023°32'0 0.0
2016-Aug-17 00:33N 38°02' E 023°32'0 0.0
2016-Aug-16 23:33N 38°02' E 023°32'0 0.0
2016-Aug-16 22:33N 38°02' E 023°32'0 0.0
2016-Aug-16 21:33N 38°02' E 023°32'0 0.0
2016-Aug-16 20:33N 38°02' E 023°32'0 0.0
2016-Aug-16 19:33N 38°02' E 023°32'5 4.9
2016-Aug-16 18:34N 37°57' E 023°33'7 6.6
2016-Aug-16 17:33N 37°51' E 023°31'0 0.0
2016-Aug-16 16:33N 37°51' E 023°31'0 0.1
2016-Aug-16 15:34N 37°51' E 023°31'2 2.2
2016-Aug-16 14:33N 37°53' E 023°32'8 7.9
2016-Aug-16 13:33N 38°01' E 023°34'2 1.6
2016-Aug-16 12:33N 38°02' E 023°36'0 0.0
2016-Aug-16 11:33N 38°02' E 023°36'1 0.6
2016-Aug-16 10:33N 38°02' E 023°35'2 0.8
2016-Aug-16 07:24N 38°02' E 023°32'0 0.0
2016-Aug-15 17:13N 38°02' E 023°32'0 0.0
2016-Aug-15 16:33N 38°02' E 023°32'5 5.4
2016-Aug-15 15:34N 37°57' E 023°35'0 0.1
2016-Aug-15 14:33N 37°57' E 023°35'0 0.0
2016-Aug-15 13:33N 37°57' E 023°35'4 3.6
2016-Aug-15 12:33N 38°00' E 023°33'2 2.0
2016-Aug-15 11:33N 38°02' E 023°32'0 0.0
2016-Aug-15 10:33N 38°02' E 023°32'0 0.0
2016-Aug-15 04:33N 38°02' E 023°32'0 0.0
2016-Aug-15 03:34N 38°02' E 023°32'0 0.0
2016-Aug-15 02:33N 38°02' E 023°32'0 0.0
2016-Aug-15 01:33N 38°02' E 023°32'5 5.2
2016-Aug-15 00:34N 37°60' E 023°26'8 7.5
2016-Aug-14 23:33N 37°52' E 023°25'6 6.4
2016-Aug-14 22:33N 37°52' E 023°33'0 0.0
2016-Aug-14 21:33N 37°52' E 023°33'0 0.0
2016-Aug-14 20:33N 37°52' E 023°33'0 0.0
2016-Aug-14 19:33N 37°52' E 023°33'0 0.0
2016-Aug-14 18:33N 37°52' E 023°33'0 0.0
2016-Aug-14 17:33N 37°52' E 023°33'0 0.1
2016-Aug-14 16:34N 37°52' E 023°33'2 2.5
2016-Aug-14 15:34N 37°54' E 023°34'8 7.6
2016-Aug-14 14:33N 38°01' E 023°32'1 0.8
2016-Aug-14 13:33N 38°02' E 023°32'  

Dump ship's entire track history